createdAt,value
2023-05-03T00:03:55.801Z,3.85
2023-05-03T00:08:57.976Z,3.85
2023-05-03T00:14:00.124Z,3.35
2023-05-03T00:19:02.319Z,5.18
2023-05-03T00:24:05.287Z,4.00
2023-05-03T00:29:07.355Z,4.50
2023-05-03T00:34:09.486Z,5.32
2023-05-03T00:39:11.750Z,5.43
2023-05-03T00:44:14.019Z,4.95
2023-05-03T00:49:16.403Z,6.53
2023-05-03T00:54:18.610Z,5.20
2023-05-03T00:59:21.012Z,3.85
2023-05-03T01:04:23.736Z,4.22
2023-05-03T01:09:37.676Z,4.07
2023-05-03T01:14:54.496Z,4.18
2023-05-03T01:20:05.392Z,5.68
2023-05-03T01:25:09.420Z,5.65
2023-05-03T01:30:12.993Z,4.32
2023-05-03T01:35:20.331Z,4.72
2023-05-03T01:40:23.734Z,3.95
2023-05-03T01:45:26.832Z,5.10
2023-05-03T01:50:30.465Z,4.75
2023-05-03T01:55:32.658Z,3.70
2023-05-03T02:00:34.962Z,3.15
2023-05-03T02:05:37.137Z,4.18
2023-05-03T02:10:39.265Z,4.40
2023-05-03T02:15:41.562Z,4.10
2023-05-03T02:20:47.029Z,4.93
2023-05-03T02:25:49.686Z,3.67
2023-05-03T02:30:51.932Z,2.45
2023-05-03T02:35:54.742Z,3.63
2023-05-03T02:40:57.104Z,4.20
2023-05-03T02:45:59.385Z,3.42
2023-05-03T02:51:03.380Z,3.28
2023-05-03T02:56:06.406Z,2.80
2023-05-03T03:01:08.804Z,2.83
2023-05-03T03:06:11.182Z,2.88
2023-05-03T03:11:14.560Z,3.35
2023-05-03T03:16:17.023Z,3.17
2023-05-03T03:21:19.749Z,3.28
2023-05-03T03:26:22.943Z,3.08
2023-05-03T03:31:26.210Z,2.65
2023-05-03T03:36:34.181Z,3.05
2023-05-03T03:41:37.214Z,2.70
2023-05-03T03:46:40.101Z,2.38
2023-05-03T03:51:42.625Z,2.20
2023-05-03T03:56:45.867Z,3.20
2023-05-03T04:01:48.237Z,2.35
2023-05-03T04:06:51.604Z,2.47
2023-05-03T04:11:54.830Z,2.63
2023-05-03T04:16:57.648Z,1.83
2023-05-03T04:22:00.972Z,2.55
2023-05-03T04:27:04.586Z,3.10
2023-05-03T04:32:10.049Z,2.42
2023-05-03T04:37:14.543Z,2.53
2023-05-03T04:42:17.441Z,2.30
2023-05-03T04:47:21.318Z,2.40
2023-05-03T04:52:23.420Z,1.98
2023-05-03T04:57:25.884Z,2.13
2023-05-03T05:02:29.897Z,2.58
2023-05-03T05:07:35.324Z,2.63
2023-05-03T05:12:39.066Z,2.67
2023-05-03T05:17:44.393Z,2.75
2023-05-03T05:22:47.948Z,2.13
2023-05-03T05:27:50.799Z,2.30
2023-05-03T05:32:53.819Z,2.53
2023-05-03T05:37:57.143Z,2.90
2023-05-03T05:43:02.855Z,2.95
2023-05-03T05:48:08.684Z,2.22
2023-05-03T05:53:11.268Z,2.88
2023-05-03T05:58:18.930Z,3.60
2023-05-03T06:03:27.182Z,2.55
2023-05-03T06:08:30.714Z,2.55
2023-05-03T06:13:37.084Z,3.03
2023-05-03T06:18:42.981Z,3.22
2023-05-03T06:23:47.585Z,2.60
2023-05-03T06:28:53.766Z,3.15
2023-05-03T06:33:59.358Z,2.72
2023-05-03T06:39:34.117Z,2.53
2023-05-03T06:45:05.030Z,2.88
2023-05-03T06:50:10.211Z,3.08
2023-05-03T06:55:19.350Z,2.90
2023-05-03T07:00:23.393Z,3.22
2023-05-03T07:05:25.941Z,3.25
2023-05-03T07:10:31.259Z,3.55
2023-05-03T07:15:36.244Z,3.33
2023-05-03T07:20:38.589Z,3.95
2023-05-03T07:25:40.941Z,4.88
2023-05-03T07:30:43.044Z,4.05
2023-05-03T07:35:49.453Z,3.38
2023-05-03T07:40:52.271Z,3.90
2023-05-03T07:45:56.868Z,3.63
2023-05-03T07:50:59.087Z,3.92
2023-05-03T07:56:01.875Z,3.20
2023-05-03T08:01:04.083Z,3.63
2023-05-03T08:06:07.002Z,2.90
2023-05-03T08:11:09.706Z,3.10
2023-05-03T08:16:14.512Z,3.92
2023-05-03T08:21:17.656Z,3.05
2023-05-03T08:26:22.162Z,2.58
2023-05-03T08:31:24.743Z,3.00
2023-05-03T08:36:28.090Z,2.97
2023-05-03T08:41:32.520Z,2.17
2023-05-03T08:46:37.333Z,2.78
2023-05-03T08:51:42.044Z,2.80
2023-05-03T08:56:44.686Z,2.30
2023-05-03T09:01:48.733Z,2.42
2023-05-03T09:07:06.911Z,2.30
2023-05-03T09:12:09.347Z,2.17
2023-05-03T09:17:17.519Z,1.88
2023-05-03T09:22:20.351Z,2.80
2023-05-03T09:27:23.884Z,2.35
2023-05-03T09:32:26.486Z,1.88
2023-05-03T09:37:38.692Z,2.35
2023-05-03T09:42:47.356Z,2.78
2023-05-03T09:47:54.300Z,2.57
2023-05-03T09:52:57.733Z,2.13
2023-05-03T09:58:01.002Z,2.00
2023-05-03T10:03:10.829Z,2.47
2023-05-03T10:08:19.782Z,2.42
2023-05-03T10:13:25.964Z,2.15
2023-05-03T10:18:31.407Z,1.88
2023-05-03T10:23:33.546Z,2.30
2023-05-03T10:28:37.300Z,2.30
2023-05-03T10:33:39.475Z,2.20
2023-05-03T10:38:43.120Z,1.60
2023-05-03T10:43:46.145Z,1.98
2023-05-03T10:49:15.482Z,2.40
2023-05-03T10:54:19.510Z,2.00
2023-05-03T10:59:22.566Z,2.10
2023-05-03T11:04:42.266Z,2.22
2023-05-03T11:09:46.403Z,1.63
2023-05-03T11:14:52.653Z,1.92
2023-05-03T11:19:55.131Z,1.63
2023-05-03T11:24:57.366Z,2.40
2023-05-03T11:29:59.668Z,2.17
2023-05-03T11:35:04.277Z,2.72
2023-05-03T11:40:18.774Z,2.42
2023-05-03T11:45:26.512Z,2.55
2023-05-03T11:50:44.914Z,2.33
2023-05-03T11:55:49.030Z,2.80
2023-05-03T12:00:53.253Z,2.80
2023-05-03T12:05:57.279Z,2.08
2023-05-03T12:11:03.310Z,2.13
2023-05-03T12:16:12.517Z,1.92
2023-05-03T12:26:22.423Z,1.63
2023-05-03T12:31:24.991Z,2.35
2023-05-03T12:36:36.874Z,1.85
2023-05-03T12:46:45.348Z,1.55
2023-05-03T12:51:55.440Z,1.88
2023-05-03T12:57:08.343Z,1.67
2023-05-03T13:07:21.307Z,1.88
2023-05-03T13:12:30.952Z,1.88
2023-05-03T13:17:33.279Z,1.40
2023-05-03T13:22:35.422Z,1.95
2023-05-03T13:27:37.596Z,1.65
2023-05-03T13:32:41.187Z,1.50
2023-05-03T13:37:43.465Z,1.67
2023-05-03T13:42:46.078Z,1.02
2023-05-03T13:48:09.579Z,1.63
2023-05-03T13:53:10.230Z,2.10
2023-05-03T13:58:12.533Z,1.52
2023-05-03T14:03:17.553Z,1.33
2023-05-03T14:08:22.500Z,1.25
2023-05-03T14:13:25.062Z,1.65
2023-05-03T14:18:27.661Z,1.50
2023-05-03T14:23:33.463Z,1.05
2023-05-03T14:28:36.342Z,1.48
2023-05-03T14:33:40.666Z,1.50
2023-05-03T14:38:42.903Z,1.70
2023-05-03T14:43:47.008Z,1.25
2023-05-03T14:48:49.125Z,1.40
2023-05-03T14:53:52.244Z,3.13
2023-05-03T14:58:55.328Z,1.95
2023-05-03T15:03:57.435Z,1.40
2023-05-03T15:08:59.668Z,2.00
2023-05-03T15:14:01.802Z,1.65
2023-05-03T15:19:04.167Z,1.63
2023-05-03T15:24:06.644Z,1.73
2023-05-03T15:29:10.474Z,1.83
2023-05-03T15:34:12.782Z,3.50
2023-05-03T15:39:14.900Z,2.22
2023-05-03T15:44:17.094Z,2.00
2023-05-03T15:49:19.227Z,2.10
2023-05-03T15:54:21.348Z,1.92
2023-05-03T15:59:23.439Z,1.92
2023-05-03T16:04:25.806Z,1.98
2023-05-03T16:09:28.844Z,1.95
2023-05-03T16:14:30.960Z,1.80
2023-05-03T16:19:33.073Z,2.08
2023-05-03T16:24:35.285Z,1.90
2023-05-03T16:29:37.733Z,2.33
2023-05-03T16:34:39.826Z,2.35
2023-05-03T16:39:42.015Z,1.80
2023-05-03T16:44:44.699Z,2.47
2023-05-03T16:49:46.825Z,1.70
2023-05-03T16:54:49.110Z,2.13
2023-05-03T16:59:51.572Z,1.92
2023-05-03T17:04:53.883Z,3.40
2023-05-03T17:09:56.282Z,2.08
2023-05-03T17:14:58.415Z,2.65
2023-05-03T17:20:00.789Z,1.90
2023-05-03T17:25:03.632Z,2.13
2023-05-03T17:30:07.399Z,1.75
2023-05-03T17:35:11.445Z,2.22
2023-05-03T17:40:13.952Z,3.75
2023-05-03T17:45:16.437Z,2.53
2023-05-03T17:50:19.686Z,2.30
2023-05-03T17:55:22.163Z,3.47
2023-05-03T18:00:25.424Z,3.42
2023-05-03T18:05:27.620Z,2.40
2023-05-03T18:10:29.875Z,2.78
2023-05-03T18:15:32.090Z,2.88
2023-05-03T18:20:34.342Z,3.13
2023-05-03T18:25:36.421Z,2.42
2023-05-03T18:30:38.604Z,3.33
2023-05-03T18:35:40.895Z,4.90
2023-05-03T18:40:43.089Z,4.55
2023-05-03T18:45:45.385Z,2.95
2023-05-03T18:50:47.526Z,4.05
2023-05-03T18:55:52.157Z,4.32
2023-05-03T19:00:54.625Z,3.28
2023-05-03T19:06:01.082Z,3.35
2023-05-03T19:11:11.087Z,5.20
2023-05-03T19:16:16.472Z,4.18
2023-05-03T19:21:19.841Z,2.72
2023-05-03T19:26:22.173Z,4.13
2023-05-03T19:31:24.257Z,5.03
2023-05-03T19:36:27.739Z,4.63
2023-05-03T19:41:30.214Z,5.60
2023-05-03T19:46:33.825Z,4.15
2023-05-03T19:51:36.121Z,5.80
2023-05-03T19:56:38.255Z,5.07
2023-05-03T20:01:40.802Z,4.63
2023-05-03T20:06:43.008Z,4.68
2023-05-03T20:11:45.187Z,3.72
2023-05-03T20:16:47.488Z,4.07
2023-05-03T20:21:50.434Z,5.40
2023-05-03T20:26:53.274Z,4.22
2023-05-03T20:31:55.576Z,4.68
2023-05-03T20:36:58.036Z,5.55
2023-05-03T20:42:00.168Z,3.90
2023-05-03T20:47:02.285Z,4.32
2023-05-03T20:52:05.792Z,5.20
2023-05-03T20:57:08.748Z,6.32
2023-05-03T21:02:11.069Z,6.03
2023-05-03T21:07:13.501Z,6.20
2023-05-03T21:12:15.733Z,5.70
2023-05-03T21:17:17.947Z,3.80
2023-05-03T21:22:20.811Z,5.50
2023-05-03T21:27:22.988Z,4.60
2023-05-03T21:32:25.227Z,4.40
2023-05-03T21:37:27.420Z,4.38
2023-05-03T21:42:29.530Z,4.03
2023-05-03T21:47:31.668Z,3.28
2023-05-03T21:52:34.235Z,2.47
2023-05-03T21:57:37.014Z,3.92
2023-05-03T22:02:39.183Z,2.55
2023-05-03T22:07:41.636Z,3.92
2023-05-03T22:12:43.861Z,3.80
2023-05-03T22:17:46.343Z,3.65
2023-05-03T22:22:48.574Z,2.85
2023-05-03T22:27:52.107Z,4.65
2023-05-03T22:32:54.539Z,3.63
2023-05-03T22:37:56.744Z,4.43
2023-05-03T22:42:58.937Z,3.15
2023-05-03T22:48:01.366Z,2.60
2023-05-03T22:53:03.957Z,2.83
2023-05-03T22:58:06.138Z,3.53
2023-05-03T23:03:08.759Z,2.92
2023-05-03T23:08:11.233Z,3.13
2023-05-03T23:13:13.555Z,3.00
2023-05-03T23:18:15.847Z,3.50
2023-05-03T23:23:17.999Z,3.40
2023-05-03T23:28:20.117Z,3.70
2023-05-03T23:33:22.645Z,3.65
2023-05-03T23:38:25.288Z,2.90
2023-05-03T23:43:29.666Z,3.22
2023-05-03T23:53:42.771Z,2.75
2023-05-03T23:58:45.487Z,2.20
